sensor_id;sensor_type;location;lat;lon;timestamp;P1;durP1;ratioP1;P2;durP2;ratioP2
52816;SDS011;38687;43.330;21.924;2023-05-07T00:00:39;5.75;;;4.45;;
52816;SDS011;38687;43.330;21.924;2023-05-07T00:03:05;5.57;;;4.10;;
52816;SDS011;38687;43.330;21.924;2023-05-07T00:05:31;6.65;;;4.40;;
52816;SDS011;38687;43.330;21.924;2023-05-07T00:07:57;5.78;;;4.32;;
52816;SDS011;38687;43.330;21.924;2023-05-07T00:10:22;5.05;;;4.03;;
52816;SDS011;38687;43.330;21.924;2023-05-07T00:12:48;5.57;;;4.50;;
52816;SDS011;38687;43.330;21.924;2023-05-07T00:15:13;5.53;;;4.00;;
52816;SDS011;38687;43.330;21.924;2023-05-07T00:17:38;5.82;;;3.88;;
52816;SDS011;38687;43.330;21.924;2023-05-07T00:20:04;6.60;;;4.32;;
52816;SDS011;38687;43.330;21.924;2023-05-07T00:22:30;5.35;;;4.00;;
52816;SDS011;38687;43.330;21.924;2023-05-07T00:24:57;5.55;;;3.75;;
52816;SDS011;38687;43.330;21.924;2023-05-07T00:27:22;4.97;;;3.85;;
52816;SDS011;38687;43.330;21.924;2023-05-07T00:29:48;5.72;;;4.05;;
52816;SDS011;38687;43.330;21.924;2023-05-07T00:32:16;5.78;;;3.83;;
52816;SDS011;38687;43.330;21.924;2023-05-07T00:34:42;5.45;;;4.20;;
52816;SDS011;38687;43.330;21.924;2023-05-07T00:37:08;5.97;;;4.38;;
52816;SDS011;38687;43.330;21.924;2023-05-07T00:39:34;5.65;;;4.60;;
52816;SDS011;38687;43.330;21.924;2023-05-07T00:41:59;5.68;;;4.53;;
52816;SDS011;38687;43.330;21.924;2023-05-07T00:44:25;8.02;;;4.72;;
52816;SDS011;38687;43.330;21.924;2023-05-07T00:46:51;6.63;;;4.40;;
52816;SDS011;38687;43.330;21.924;2023-05-07T00:49:17;7.90;;;4.50;;
52816;SDS011;38687;43.330;21.924;2023-05-07T00:51:43;6.28;;;4.28;;
52816;SDS011;38687;43.330;21.924;2023-05-07T00:54:09;4.72;;;3.75;;
52816;SDS011;38687;43.330;21.924;2023-05-07T00:56:36;4.07;;;3.67;;
52816;SDS011;38687;43.330;21.924;2023-05-07T00:59:02;3.75;;;3.38;;
52816;SDS011;38687;43.330;21.924;2023-05-07T01:01:31;4.07;;;3.47;;
52816;SDS011;38687;43.330;21.924;2023-05-07T01:03:56;4.22;;;3.70;;
52816;SDS011;38687;43.330;21.924;2023-05-07T01:06:23;4.03;;;3.70;;
52816;SDS011;38687;43.330;21.924;2023-05-07T01:08:48;4.88;;;4.00;;
52816;SDS011;38687;43.330;21.924;2023-05-07T01:11:21;4.18;;;3.45;;
52816;SDS011;38687;43.330;21.924;2023-05-07T01:13:47;5.28;;;4.60;;
52816;SDS011;38687;43.330;21.924;2023-05-07T01:16:12;5.45;;;3.97;;
52816;SDS011;38687;43.330;21.924;2023-05-07T01:18:38;6.03;;;4.22;;
52816;SDS011;38687;43.330;21.924;2023-05-07T01:21:04;4.20;;;3.20;;
52816;SDS011;38687;43.330;21.924;2023-05-07T01:23:30;5.07;;;3.90;;
52816;SDS011;38687;43.330;21.924;2023-05-07T01:26:01;6.53;;;4.40;;
52816;SDS011;38687;43.330;21.924;2023-05-07T01:28:27;5.68;;;4.40;;
52816;SDS011;38687;43.330;21.924;2023-05-07T01:30:53;5.05;;;4.38;;
52816;SDS011;38687;43.330;21.924;2023-05-07T01:33:24;8.07;;;5.07;;
52816;SDS011;38687;43.330;21.924;2023-05-07T01:35:53;5.72;;;4.43;;
52816;SDS011;38687;43.330;21.924;2023-05-07T01:38:19;3.72;;;3.38;;
52816;SDS011;38687;43.330;21.924;2023-05-07T01:40:46;4.28;;;3.53;;
52816;SDS011;38687;43.330;21.924;2023-05-07T01:43:12;4.72;;;3.83;;
52816;SDS011;38687;43.330;21.924;2023-05-07T01:45:37;4.28;;;3.83;;
52816;SDS011;38687;43.330;21.924;2023-05-07T01:48:03;4.30;;;3.85;;
52816;SDS011;38687;43.330;21.924;2023-05-07T01:50:31;4.88;;;3.55;;
52816;SDS011;38687;43.330;21.924;2023-05-07T01:52:57;4.53;;;3.30;;
52816;SDS011;38687;43.330;21.924;2023-05-07T01:55:22;3.35;;;2.92;;
52816;SDS011;38687;43.330;21.924;2023-05-07T01:57:51;6.90;;;3.60;;
52816;SDS011;38687;43.330;21.924;2023-05-07T02:00:17;3.90;;;3.20;;
52816;SDS011;38687;43.330;21.924;2023-05-07T02:02:44;4.63;;;3.47;;
52816;SDS011;38687;43.330;21.924;2023-05-07T02:05:09;5.10;;;3.90;;
52816;SDS011;38687;43.330;21.924;2023-05-07T02:07:35;5.43;;;3.72;;
52816;SDS011;38687;43.330;21.924;2023-05-07T02:10:00;5.65;;;3.33;;
52816;SDS011;38687;43.330;21.924;2023-05-07T02:12:26;5.68;;;3.60;;
52816;SDS011;38687;43.330;21.924;2023-05-07T02:14:51;4.53;;;3.67;;
52816;SDS011;38687;43.330;21.924;2023-05-07T02:17:17;4.40;;;3.67;;
52816;SDS011;38687;43.330;21.924;2023-05-07T02:19:42;4.20;;;3.85;;
52816;SDS011;38687;43.330;21.924;2023-05-07T02:22:09;5.47;;;4.03;;
52816;SDS011;38687;43.330;21.924;2023-05-07T02:24:34;4.28;;;3.60;;
52816;SDS011;38687;43.330;21.924;2023-05-07T02:27:00;8.10;;;4.25;;
52816;SDS011;38687;43.330;21.924;2023-05-07T02:29:25;4.65;;;3.83;;
52816;SDS011;38687;43.330;21.924;2023-05-07T02:31:50;4.20;;;3.80;;
52816;SDS011;38687;43.330;21.924;2023-05-07T02:34:18;3.33;;;3.03;;
52816;SDS011;38687;43.330;21.924;2023-05-07T02:36:43;3.85;;;3.25;;
52816;SDS011;38687;43.330;21.924;2023-05-07T02:39:09;4.20;;;3.80;;
52816;SDS011;38687;43.330;21.924;2023-05-07T02:41:34;4.20;;;3.45;;
52816;SDS011;38687;43.330;21.924;2023-05-07T02:44:00;4.57;;;4.13;;
52816;SDS011;38687;43.330;21.924;2023-05-07T02:46:25;6.15;;;4.03;;
52816;SDS011;38687;43.330;21.924;2023-05-07T02:48:51;5.07;;;3.90;;
52816;SDS011;38687;43.330;21.924;2023-05-07T02:51:20;4.47;;;3.83;;
52816;SDS011;38687;43.330;21.924;2023-05-07T02:53:46;4.45;;;3.92;;
52816;SDS011;38687;43.330;21.924;2023-05-07T02:56:12;4.32;;;3.80;;
52816;SDS011;38687;43.330;21.924;2023-05-07T02:58:37;5.65;;;3.55;;
52816;SDS011;38687;43.330;21.924;2023-05-07T03:01:04;5.18;;;4.13;;
52816;SDS011;38687;43.330;21.924;2023-05-07T03:03:30;5.40;;;4.20;;
52816;SDS011;38687;43.330;21.924;2023-05-07T03:05:56;4.25;;;3.85;;
52816;SDS011;38687;43.330;21.924;2023-05-07T03:08:21;4.45;;;4.05;;
52816;SDS011;38687;43.330;21.924;2023-05-07T03:10:47;5.28;;;3.95;;
52816;SDS011;38687;43.330;21.924;2023-05-07T03:13:12;4.95;;;4.13;;
52816;SDS011;38687;43.330;21.924;2023-05-07T03:15:38;5.30;;;3.70;;
52816;SDS011;38687;43.330;21.924;2023-05-07T03:18:03;5.07;;;4.43;;
52816;SDS011;38687;43.330;21.924;2023-05-07T03:20:28;6.38;;;4.20;;
52816;SDS011;38687;43.330;21.924;2023-05-07T03:22:55;5.22;;;3.97;;
52816;SDS011;38687;43.330;21.924;2023-05-07T03:25:20;5.18;;;3.50;;
52816;SDS011;38687;43.330;21.924;2023-05-07T03:27:46;5.93;;;3.88;;
52816;SDS011;38687;43.330;21.924;2023-05-07T03:30:11;4.28;;;3.88;;
52816;SDS011;38687;43.330;21.924;2023-05-07T03:32:37;7.43;;;4.38;;
52816;SDS011;38687;43.330;21.924;2023-05-07T03:35:03;6.70;;;4.72;;
52816;SDS011;38687;43.330;21.924;2023-05-07T03:37:28;9.00;;;5.20;;
52816;SDS011;38687;43.330;21.924;2023-05-07T03:39:55;7.28;;;5.30;;
52816;SDS011;38687;43.330;21.924;2023-05-07T03:42:21;6.45;;;4.88;;
52816;SDS011;38687;43.330;21.924;2023-05-07T03:44:46;7.35;;;6.00;;
52816;SDS011;38687;43.330;21.924;2023-05-07T03:47:12;8.00;;;5.05;;
52816;SDS011;38687;43.330;21.924;2023-05-07T03:49:38;5.38;;;4.60;;
52816;SDS011;38687;43.330;21.924;2023-05-07T03:52:04;5.13;;;4.05;;
52816;SDS011;38687;43.330;21.924;2023-05-07T03:54:33;7.82;;;4.78;;
52816;SDS011;38687;43.330;21.924;2023-05-07T03:56:58;6.38;;;4.13;;
52816;SDS011;38687;43.330;21.924;2023-05-07T03:59:27;5.72;;;4.35;;
52816;SDS011;38687;43.330;21.924;2023-05-07T04:01:52;5.32;;;4.40;;
52816;SDS011;38687;43.330;21.924;2023-05-07T04:04:18;5.30;;;4.03;;
52816;SDS011;38687;43.330;21.924;2023-05-07T04:06:43;4.45;;;4.03;;
52816;SDS011;38687;43.330;21.924;2023-05-07T04:09:08;6.93;;;4.53;;
52816;SDS011;38687;43.330;21.924;2023-05-07T04:11:35;7.13;;;4.18;;
52816;SDS011;38687;43.330;21.924;2023-05-07T04:14:00;6.05;;;4.20;;
52816;SDS011;38687;43.330;21.924;2023-05-07T04:16:26;6.72;;;4.57;;
52816;SDS011;38687;43.330;21.924;2023-05-07T04:18:51;6.07;;;4.82;;
52816;SDS011;38687;43.330;21.924;2023-05-07T04:21:18;6.57;;;4.00;;
52816;SDS011;38687;43.330;21.924;2023-05-07T04:23:47;6.95;;;4.40;;
52816;SDS011;38687;43.330;21.924;2023-05-07T04:26:14;4.55;;;4.10;;
52816;SDS011;38687;43.330;21.924;2023-05-07T04:28:40;6.15;;;4.18;;
52816;SDS011;38687;43.330;21.924;2023-05-07T04:31:08;7.07;;;4.35;;
52816;SDS011;38687;43.330;21.924;2023-05-07T04:33:34;5.93;;;4.57;;
52816;SDS011;38687;43.330;21.924;2023-05-07T04:36:02;5.63;;;4.15;;
52816;SDS011;38687;43.330;21.924;2023-05-07T04:38:31;8.52;;;4.00;;
52816;SDS011;38687;43.330;21.924;2023-05-07T04:41:02;5.57;;;3.15;;
52816;SDS011;38687;43.330;21.924;2023-05-07T04:43:28;3.67;;;3.38;;
52816;SDS011;38687;43.330;21.924;2023-05-07T04:45:53;4.65;;;3.50;;
52816;SDS011;38687;43.330;21.924;2023-05-07T04:48:18;5.10;;;3.13;;
52816;SDS011;38687;43.330;21.924;2023-05-07T04:51:03;4.93;;;3.38;;
52816;SDS011;38687;43.330;21.924;2023-05-07T04:53:28;4.32;;;3.20;;
52816;SDS011;38687;43.330;21.924;2023-05-07T04:55:55;5.18;;;3.70;;
52816;SDS011;38687;43.330;21.924;2023-05-07T04:58:21;5.60;;;3.65;;
52816;SDS011;38687;43.330;21.924;2023-05-07T05:00:47;5.63;;;4.13;;
52816;SDS011;38687;43.330;21.924;2023-05-07T05:03:12;4.85;;;3.70;;
52816;SDS011;38687;43.330;21.924;2023-05-07T05:05:38;6.32;;;3.78;;
52816;SDS011;38687;43.330;21.924;2023-05-07T05:08:03;4.70;;;3.47;;
52816;SDS011;38687;43.330;21.924;2023-05-07T05:10:28;4.20;;;3.50;;
52816;SDS011;38687;43.330;21.924;2023-05-07T05:12:54;4.78;;;3.47;;
52816;SDS011;38687;43.330;21.924;2023-05-07T05:15:19;5.38;;;3.80;;
52816;SDS011;38687;43.330;21.924;2023-05-07T05:17:45;4.68;;;3.65;;
52816;SDS011;38687;43.330;21.924;2023-05-07T05:20:13;4.65;;;3.25;;
52816;SDS011;38687;43.330;21.924;2023-05-07T05:22:39;3.63;;;3.25;;
52816;SDS011;38687;43.330;21.924;2023-05-07T05:25:05;4.80;;;3.30;;
52816;SDS011;38687;43.330;21.924;2023-05-07T05:27:34;4.82;;;3.95;;
52816;SDS011;38687;43.330;21.924;2023-05-07T05:30:00;6.38;;;3.75;;
52816;SDS011;38687;43.330;21.924;2023-05-07T05:32:26;5.07;;;4.10;;
52816;SDS011;38687;43.330;21.924;2023-05-07T05:34:51;4.90;;;4.03;;
52816;SDS011;38687;43.330;21.924;2023-05-07T05:37:17;3.90;;;3.50;;
52816;SDS011;38687;43.330;21.924;2023-05-07T05:39:42;5.32;;;3.90;;
52816;SDS011;38687;43.330;21.924;2023-05-07T05:42:08;7.05;;;5.13;;
52816;SDS011;38687;43.330;21.924;2023-05-07T05:44:33;6.53;;;5.22;;
52816;SDS011;38687;43.330;21.924;2023-05-07T05:46:59;5.38;;;4.80;;
52816;SDS011;38687;43.330;21.924;2023-05-07T05:49:24;7.25;;;5.15;;
52816;SDS011;38687;43.330;21.924;2023-05-07T05:51:53;7.63;;;4.97;;
52816;SDS011;38687;43.330;21.924;2023-05-07T05:54:19;6.82;;;5.13;;
52816;SDS011;38687;43.330;21.924;2023-05-07T05:56:50;6.65;;;4.57;;
52816;SDS011;38687;43.330;21.924;2023-05-07T05:59:19;8.35;;;4.85;;
52816;SDS011;38687;43.330;21.924;2023-05-07T06:01:44;6.57;;;4.53;;
52816;SDS011;38687;43.330;21.924;2023-05-07T06:04:10;5.50;;;4.50;;
52816;SDS011;38687;43.330;21.924;2023-05-07T06:06:35;6.15;;;4.63;;
52816;SDS011;38687;43.330;21.924;2023-05-07T06:09:09;6.25;;;4.15;;
52816;SDS011;38687;43.330;21.924;2023-05-07T06:11:35;5.95;;;4.05;;
52816;SDS011;38687;43.330;21.924;2023-05-07T06:14:03;4.75;;;3.95;;
52816;SDS011;38687;43.330;21.924;2023-05-07T06:16:29;5.18;;;4.28;;
52816;SDS011;38687;43.330;21.924;2023-05-07T06:18:54;4.70;;;4.20;;
52816;SDS011;38687;43.330;21.924;2023-05-07T06:21:20;7.97;;;4.95;;
52816;SDS011;38687;43.330;21.924;2023-05-07T06:23:45;6.50;;;4.85;;
52816;SDS011;38687;43.330;21.924;2023-05-07T06:26:11;6.22;;;4.82;;
52816;SDS011;38687;43.330;21.924;2023-05-07T06:28:36;6.13;;;4.95;;
52816;SDS011;38687;43.330;21.924;2023-05-07T06:31:18;5.95;;;4.93;;
52816;SDS011;38687;43.330;21.924;2023-05-07T06:33:48;4.95;;;4.43;;
52816;SDS011;38687;43.330;21.924;2023-05-07T06:36:15;4.90;;;4.28;;
52816;SDS011;38687;43.330;21.924;2023-05-07T06:38:40;5.90;;;4.88;;
52816;SDS011;38687;43.330;21.924;2023-05-07T06:41:06;5.72;;;4.50;;
52816;SDS011;38687;43.330;21.924;2023-05-07T06:43:32;7.07;;;5.13;;
52816;SDS011;38687;43.330;21.924;2023-05-07T06:45:58;8.30;;;4.88;;
52816;SDS011;38687;43.330;21.924;2023-05-07T06:48:23;6.22;;;4.60;;
52816;SDS011;38687;43.330;21.924;2023-05-07T06:50:48;6.35;;;4.40;;
52816;SDS011;38687;43.330;21.924;2023-05-07T06:53:15;8.27;;;4.95;;
52816;SDS011;38687;43.330;21.924;2023-05-07T06:55:40;6.95;;;4.82;;
52816;SDS011;38687;43.330;21.924;2023-05-07T06:58:06;7.30;;;4.82;;
52816;SDS011;38687;43.330;21.924;2023-05-07T07:00:32;7.43;;;4.50;;
52816;SDS011;38687;43.330;21.924;2023-05-07T07:02:57;4.90;;;4.03;;
52816;SDS011;38687;43.330;21.924;2023-05-07T07:05:25;5.03;;;3.42;;
52816;SDS011;38687;43.330;21.924;2023-05-07T07:07:50;5.63;;;3.53;;
52816;SDS011;38687;43.330;21.924;2023-05-07T07:10:19;3.67;;;3.38;;
52816;SDS011;38687;43.330;21.924;2023-05-07T07:12:45;4.35;;;3.70;;
52816;SDS011;38687;43.330;21.924;2023-05-07T07:15:10;4.13;;;3.25;;
52816;SDS011;38687;43.330;21.924;2023-05-07T07:17:36;4.20;;;3.47;;
52816;SDS011;38687;43.330;21.924;2023-05-07T07:20:02;4.68;;;3.60;;
52816;SDS011;38687;43.330;21.924;2023-05-07T07:22:28;5.38;;;3.78;;
52816;SDS011;38687;43.330;21.924;2023-05-07T07:24:54;5.65;;;3.47;;
52816;SDS011;38687;43.330;21.924;2023-05-07T07:27:19;3.67;;;3.38;;
52816;SDS011;38687;43.330;21.924;2023-05-07T07:29:44;5.18;;;3.75;;
52816;SDS011;38687;43.330;21.924;2023-05-07T07:32:10;3.97;;;3.45;;
52816;SDS011;38687;43.330;21.924;2023-05-07T07:34:35;4.22;;;3.83;;
52816;SDS011;38687;43.330;21.924;2023-05-07T07:37:01;5.38;;;3.35;;
52816;SDS011;38687;43.330;21.924;2023-05-07T07:39:30;5.03;;;3.47;;
52816;SDS011;38687;43.330;21.924;2023-05-07T07:41:56;5.13;;;3.53;;
52816;SDS011;38687;43.330;21.924;2023-05-07T07:44:21;5.00;;;3.67;;
52816;SDS011;38687;43.330;21.924;2023-05-07T07:46:47;5.75;;;4.13;;
52816;SDS011;38687;43.330;21.924;2023-05-07T07:49:12;4.22;;;3.40;;
52816;SDS011;38687;43.330;21.924;2023-05-07T07:51:38;4.97;;;4.00;;
52816;SDS011;38687;43.330;21.924;2023-05-07T07:54:03;5.80;;;3.17;;
52816;SDS011;38687;43.330;21.924;2023-05-07T07:56:29;4.40;;;3.28;;
52816;SDS011;38687;43.330;21.924;2023-05-07T07:58:55;4.85;;;3.47;;
52816;SDS011;38687;43.330;21.924;2023-05-07T08:01:20;7.85;;;3.95;;
52816;SDS011;38687;43.330;21.924;2023-05-07T08:03:46;4.07;;;3.63;;
52816;SDS011;38687;43.330;21.924;2023-05-07T08:06:11;6.55;;;3.63;;
52816;SDS011;38687;43.330;21.924;2023-05-07T08:08:37;3.67;;;3.00;;
52816;SDS011;38687;43.330;21.924;2023-05-07T08:11:02;4.35;;;3.40;;
52816;SDS011;38687;43.330;21.924;2023-05-07T08:13:28;3.78;;;3.38;;
52816;SDS011;38687;43.330;21.924;2023-05-07T08:15:53;4.72;;;3.33;;
52816;SDS011;38687;43.330;21.924;2023-05-07T08:18:18;6.35;;;3.28;;
52816;SDS011;38687;43.330;21.924;2023-05-07T08:20:44;3.75;;;3.20;;
52816;SDS011;38687;43.330;21.924;2023-05-07T08:23:09;4.07;;;3.25;;
52816;SDS011;38687;43.330;21.924;2023-05-07T08:25:38;5.40;;;3.38;;
52816;SDS011;38687;43.330;21.924;2023-05-07T08:28:04;3.72;;;3.30;;
52816;SDS011;38687;43.330;21.924;2023-05-07T08:30:29;4.22;;;3.17;;
52816;SDS011;38687;43.330;21.924;2023-05-07T08:32:55;5.43;;;3.28;;
52816;SDS011;38687;43.330;21.924;2023-05-07T08:35:20;3.08;;;2.78;;
52816;SDS011;38687;43.330;21.924;2023-05-07T08:37:45;4.95;;;3.00;;
52816;SDS011;38687;43.330;21.924;2023-05-07T08:40:11;4.63;;;3.10;;
52816;SDS011;38687;43.330;21.924;2023-05-07T08:42:36;3.97;;;3.20;;
52816;SDS011;38687;43.330;21.924;2023-05-07T08:45:03;3.72;;;3.35;;
52816;SDS011;38687;43.330;21.924;2023-05-07T08:47:43;3.70;;;3.40;;
52816;SDS011;38687;43.330;21.924;2023-05-07T08:50:12;3.45;;;3.00;;
52816;SDS011;38687;43.330;21.924;2023-05-07T08:52:38;4.82;;;3.38;;
52816;SDS011;38687;43.330;21.924;2023-05-07T08:55:05;3.90;;;3.33;;
52816;SDS011;38687;43.330;21.924;2023-05-07T08:57:31;4.07;;;3.47;;
52816;SDS011;38687;43.330;21.924;2023-05-07T08:59:57;3.05;;;2.85;;
52816;SDS011;38687;43.330;21.924;2023-05-07T09:02:22;3.75;;;3.40;;
52816;SDS011;38687;43.330;21.924;2023-05-07T09:04:48;3.65;;;3.13;;
52816;SDS011;38687;43.330;21.924;2023-05-07T09:07:13;3.92;;;3.20;;
52816;SDS011;38687;43.330;21.924;2023-05-07T09:09:39;5.38;;;3.10;;
52816;SDS011;38687;43.330;21.924;2023-05-07T09:12:04;4.13;;;3.17;;
52816;SDS011;38687;43.330;21.924;2023-05-07T09:14:30;5.68;;;3.20;;
52816;SDS011;38687;43.330;21.924;2023-05-07T09:16:55;3.55;;;3.28;;
52816;SDS011;38687;43.330;21.924;2023-05-07T09:19:24;3.53;;;3.22;;
52816;SDS011;38687;43.330;21.924;2023-05-07T09:21:57;3.38;;;3.17;;
52816;SDS011;38687;43.330;21.924;2023-05-07T09:24:24;3.53;;;3.22;;
52816;SDS011;38687;43.330;21.924;2023-05-07T09:26:49;3.60;;;3.30;;
52816;SDS011;38687;43.330;21.924;2023-05-07T09:29:16;3.72;;;3.22;;
52816;SDS011;38687;43.330;21.924;2023-05-07T09:31:42;3.83;;;3.17;;
52816;SDS011;38687;43.330;21.924;2023-05-07T09:34:08;5.30;;;4.20;;
52816;SDS011;38687;43.330;21.924;2023-05-07T09:36:33;4.63;;;3.83;;
52816;SDS011;38687;43.330;21.924;2023-05-07T09:38:59;4.10;;;3.67;;
52816;SDS011;38687;43.330;21.924;2023-05-07T09:41:25;6.40;;;4.10;;
52816;SDS011;38687;43.330;21.924;2023-05-07T09:43:54;4.72;;;4.28;;
52816;SDS011;38687;43.330;21.924;2023-05-07T09:46:20;4.32;;;3.92;;
52816;SDS011;38687;43.330;21.924;2023-05-07T09:48:57;5.28;;;4.20;;
52816;SDS011;38687;43.330;21.924;2023-05-07T09:51:39;5.03;;;3.97;;
52816;SDS011;38687;43.330;21.924;2023-05-07T09:54:06;4.85;;;3.10;;
52816;SDS011;38687;43.330;21.924;2023-05-07T09:56:32;6.20;;;3.88;;
52816;SDS011;38687;43.330;21.924;2023-05-07T09:59:01;3.85;;;3.50;;
52816;SDS011;38687;43.330;21.924;2023-05-07T10:01:29;6.20;;;4.22;;
52816;SDS011;38687;43.330;21.924;2023-05-07T10:03:56;4.82;;;3.75;;
52816;SDS011;38687;43.330;21.924;2023-05-07T10:06:23;6.35;;;3.90;;
52816;SDS011;38687;43.330;21.924;2023-05-07T10:08:50;6.68;;;3.83;;
52816;SDS011;38687;43.330;21.924;2023-05-07T10:11:17;3.88;;;3.50;;
52816;SDS011;38687;43.330;21.924;2023-05-07T10:13:43;5.45;;;4.07;;
52816;SDS011;38687;43.330;21.924;2023-05-07T10:16:08;4.68;;;4.28;;
52816;SDS011;38687;43.330;21.924;2023-05-07T10:18:34;4.68;;;3.60;;
52816;SDS011;38687;43.330;21.924;2023-05-07T10:23:45;3.77;;;3.20;;
52816;SDS011;38687;43.330;21.924;2023-05-07T10:26:12;5.10;;;3.35;;
52816;SDS011;38687;43.330;21.924;2023-05-07T10:28:39;3.83;;;3.47;;
52816;SDS011;38687;43.330;21.924;2023-05-07T10:31:15;3.78;;;3.45;;
52816;SDS011;38687;43.330;21.924;2023-05-07T10:33:49;4.40;;;3.20;;
52816;SDS011;38687;43.330;21.924;2023-05-07T10:36:16;3.88;;;3.00;;
52816;SDS011;38687;43.330;21.924;2023-05-07T10:38:42;3.80;;;3.10;;
52816;SDS011;38687;43.330;21.924;2023-05-07T10:41:08;7.00;;;3.30;;
52816;SDS011;38687;43.330;21.924;2023-05-07T10:43:44;3.53;;;3.22;;
52816;SDS011;38687;43.330;21.924;2023-05-07T10:46:17;5.00;;;3.38;;
52816;SDS011;38687;43.330;21.924;2023-05-07T10:51:31;3.05;;;2.63;;
52816;SDS011;38687;43.330;21.924;2023-05-07T10:56:38;4.70;;;3.20;;
52816;SDS011;38687;43.330;21.924;2023-05-07T11:04:18;3.20;;;2.95;;
52816;SDS011;38687;43.330;21.924;2023-05-07T11:17:34;3.05;;;2.83;;
52816;SDS011;38687;43.330;21.924;2023-05-07T11:20:17;3.65;;;2.90;;
52816;SDS011;38687;43.330;21.924;2023-05-07T11:22:43;3.60;;;2.90;;
52816;SDS011;38687;43.330;21.924;2023-05-07T11:25:08;3.53;;;2.70;;
52816;SDS011;38687;43.330;21.924;2023-05-07T11:27:34;4.25;;;3.58;;
52816;SDS011;38687;43.330;21.924;2023-05-07T11:29:59;5.13;;;3.15;;
52816;SDS011;38687;43.330;21.924;2023-05-07T11:32:30;4.22;;;2.35;;
52816;SDS011;38687;43.330;21.924;2023-05-07T11:34:57;2.13;;;1.80;;
52816;SDS011;38687;43.330;21.924;2023-05-07T11:37:25;2.08;;;1.98;;
52816;SDS011;38687;43.330;21.924;2023-05-07T11:40:01;2.30;;;2.00;;
52816;SDS011;38687;43.330;21.924;2023-05-07T11:44:59;2.45;;;2.25;;
52816;SDS011;38687;43.330;21.924;2023-05-07T11:47:25;2.70;;;1.92;;
52816;SDS011;38687;43.330;21.924;2023-05-07T11:49:54;3.03;;;2.80;;
52816;SDS011;38687;43.330;21.924;2023-05-07T11:52:22;2.47;;;2.28;;
52816;SDS011;38687;43.330;21.924;2023-05-07T11:54:51;2.70;;;2.20;;
52816;SDS011;38687;43.330;21.924;2023-05-07T11:57:18;2.40;;;2.30;;
52816;SDS011;38687;43.330;21.924;2023-05-07T11:59:45;3.40;;;2.40;;
52816;SDS011;38687;43.330;21.924;2023-05-07T12:02:13;2.80;;;2.38;;
52816;SDS011;38687;43.330;21.924;2023-05-07T12:04:40;5.22;;;2.47;;
52816;SDS011;38687;43.330;21.924;2023-05-07T12:07:05;3.65;;;2.38;;
52816;SDS011;38687;43.330;21.924;2023-05-07T12:09:36;4.20;;;2.97;;
52816;SDS011;38687;43.330;21.924;2023-05-07T12:12:05;3.35;;;2.53;;
52816;SDS011;38687;43.330;21.924;2023-05-07T12:14:30;2.45;;;2.25;;
52816;SDS011;38687;43.330;21.924;2023-05-07T12:16:57;2.45;;;2.25;;
52816;SDS011;38687;43.330;21.924;2023-05-07T12:19:24;2.58;;;2.38;;
52816;SDS011;38687;43.330;21.924;2023-05-07T12:21:49;2.60;;;2.40;;
52816;SDS011;38687;43.330;21.924;2023-05-07T12:24:16;4.35;;;3.00;;
52816;SDS011;38687;43.330;21.924;2023-05-07T12:26:41;4.40;;;2.60;;
52816;SDS011;38687;43.330;21.924;2023-05-07T12:29:06;2.72;;;2.53;;
52816;SDS011;38687;43.330;21.924;2023-05-07T12:31:32;2.80;;;2.60;;
52816;SDS011;38687;43.330;21.924;2023-05-07T12:33:58;2.67;;;2.30;;
52816;SDS011;38687;43.330;21.924;2023-05-07T12:36:23;3.45;;;2.50;;
52816;SDS011;38687;43.330;21.924;2023-05-07T12:38:49;2.92;;;2.60;;
52816;SDS011;38687;43.330;21.924;2023-05-07T12:41:15;3.38;;;2.83;;
52816;SDS011;38687;43.330;21.924;2023-05-07T12:43:43;3.80;;;2.85;;
52816;SDS011;38687;43.330;21.924;2023-05-07T12:46:09;3.53;;;2.42;;
52816;SDS011;38687;43.330;21.924;2023-05-07T12:48:38;2.70;;;2.50;;
52816;SDS011;38687;43.330;21.924;2023-05-07T12:51:08;2.85;;;2.58;;
52816;SDS011;38687;43.330;21.924;2023-05-07T12:53:39;3.10;;;2.80;;
52816;SDS011;38687;43.330;21.924;2023-05-07T12:56:05;2.60;;;2.40;;
52816;SDS011;38687;43.330;21.924;2023-05-07T12:58:33;3.03;;;2.60;;
52816;SDS011;38687;43.330;21.924;2023-05-07T13:01:00;3.45;;;2.60;;
52816;SDS011;38687;43.330;21.924;2023-05-07T13:03:30;2.65;;;2.45;;
52816;SDS011;38687;43.330;21.924;2023-05-07T13:06:01;3.70;;;2.70;;
52816;SDS011;38687;43.330;21.924;2023-05-07T13:08:32;2.92;;;2.72;;
52816;SDS011;38687;43.330;21.924;2023-05-07T13:11:09;2.92;;;2.50;;
52816;SDS011;38687;43.330;21.924;2023-05-07T13:13:35;4.15;;;2.40;;
52816;SDS011;38687;43.330;21.924;2023-05-07T13:16:02;2.63;;;2.42;;
52816;SDS011;38687;43.330;21.924;2023-05-07T13:18:32;2.83;;;2.63;;
52816;SDS011;38687;43.330;21.924;2023-05-07T13:20:58;2.60;;;2.40;;
52816;SDS011;38687;43.330;21.924;2023-05-07T13:23:23;2.78;;;2.47;;
52816;SDS011;38687;43.330;21.924;2023-05-07T13:25:49;3.05;;;2.75;;
52816;SDS011;38687;43.330;21.924;2023-05-07T13:28:15;3.42;;;2.70;;
52816;SDS011;38687;43.330;21.924;2023-05-07T13:30:41;2.58;;;2.38;;
52816;SDS011;38687;43.330;21.924;2023-05-07T13:33:07;4.43;;;2.40;;
52816;SDS011;38687;43.330;21.924;2023-05-07T13:35:33;3.78;;;2.30;;
52816;SDS011;38687;43.330;21.924;2023-05-07T13:37:59;3.70;;;2.40;;
52816;SDS011;38687;43.330;21.924;2023-05-07T13:40:24;2.45;;;2.25;;
52816;SDS011;38687;43.330;21.924;2023-05-07T13:42:50;2.88;;;2.60;;
52816;SDS011;38687;43.330;21.924;2023-05-07T13:45:16;4.05;;;2.30;;
52816;SDS011;38687;43.330;21.924;2023-05-07T13:47:45;3.65;;;2.53;;
52816;SDS011;38687;43.330;21.924;2023-05-07T13:50:11;3.35;;;2.10;;
52816;SDS011;38687;43.330;21.924;2023-05-07T13:52:39;2.78;;;2.58;;
52816;SDS011;38687;43.330;21.924;2023-05-07T13:55:06;3.17;;;2.65;;
52816;SDS011;38687;43.330;21.924;2023-05-07T13:57:32;4.15;;;2.85;;
52816;SDS011;38687;43.330;21.924;2023-05-07T13:59:58;2.95;;;2.30;;
52816;SDS011;38687;43.330;21.924;2023-05-07T14:02:23;3.25;;;2.67;;
52816;SDS011;38687;43.330;21.924;2023-05-07T14:04:49;2.75;;;2.40;;
52816;SDS011;38687;43.330;21.924;2023-05-07T14:07:14;2.50;;;2.30;;
52816;SDS011;38687;43.330;21.924;2023-05-07T14:09:40;3.33;;;2.55;;
52816;SDS011;38687;43.330;21.924;2023-05-07T14:12:05;2.65;;;2.45;;
52816;SDS011;38687;43.330;21.924;2023-05-07T14:14:31;3.58;;;2.60;;
52816;SDS011;38687;43.330;21.924;2023-05-07T14:16:56;2.45;;;2.10;;
52816;SDS011;38687;43.330;21.924;2023-05-07T14:19:22;3.00;;;2.67;;
52816;SDS011;38687;43.330;21.924;2023-05-07T14:21:48;4.28;;;2.22;;
52816;SDS011;38687;43.330;21.924;2023-05-07T14:24:13;3.03;;;2.60;;
52816;SDS011;38687;43.330;21.924;2023-05-07T14:26:39;4.78;;;2.80;;
52816;SDS011;38687;43.330;21.924;2023-05-07T14:29:04;2.53;;;2.33;;
52816;SDS011;38687;43.330;21.924;2023-05-07T14:31:30;2.58;;;2.38;;
52816;SDS011;38687;43.330;21.924;2023-05-07T14:33:58;2.47;;;2.28;;
52816;SDS011;38687;43.330;21.924;2023-05-07T14:36:24;2.42;;;2.22;;
52816;SDS011;38687;43.330;21.924;2023-05-07T14:38:51;2.80;;;2.60;;
52816;SDS011;38687;43.330;21.924;2023-05-07T14:41:18;2.50;;;2.30;;
52816;SDS011;38687;43.330;21.924;2023-05-07T14:43:44;4.20;;;2.45;;
52816;SDS011;38687;43.330;21.924;2023-05-07T14:46:16;2.92;;;2.17;;
52816;SDS011;38687;43.330;21.924;2023-05-07T14:48:43;4.22;;;2.40;;
52816;SDS011;38687;43.330;21.924;2023-05-07T14:51:10;4.80;;;2.60;;
52816;SDS011;38687;43.330;21.924;2023-05-07T14:53:35;3.75;;;3.00;;
52816;SDS011;38687;43.330;21.924;2023-05-07T14:56:01;2.78;;;2.50;;